Latest Weather Observations for Lucinda

IDQ60801

Issued at 4:35 pm EST Tuesday 29 July 2014 (issued every 30 minutes, with the page automatically refreshed every 10 minutes)

About weather observations | Map of weather stations | Latest weather observations for QLD | Other Formats
Station Details ID: 032141 Name: LUCINDA POINT Lat: -18.52 Lon: 146.39 Height: 10.0 m
Data from the previous 72 hours. | See also: Recent months for locations in Queensland
Date/Time
EST
Temp
°C
App
Temp
°C
Dew
Point
Rel
Hum
%
Delta-T
°C
Wind Press
QNH
hPa
Press
MSL
hPa
Rain
since 9 am
mm
Dir
 
Spd
km/h
Gust
km/h
Spd
kts
Gust
kts
29/04:30pm 22.8 22.9 15.6 64 4.3 SE 9 13 5 7 1018.5 - 0.0
29/04:00pm 22.5 22.6 15.4 64 4.2 SSE 9 13 5 7 1018.4 1018.4 0.0
29/03:30pm 22.7 22.6 15.0 61 4.6 SSE 9 11 5 6 1018.4 - 0.0
29/03:00pm 22.6 22.5 15.0 62 4.5 S 9 11 5 6 1018.6 1018.6 0.0
29/02:30pm 22.8 23.1 14.9 61 4.7 S 7 9 4 5 1018.7 - 0.0
29/02:00pm 23.0 23.4 15.3 62 4.6 SSW 7 11 4 6 1019.1 1019.1 0.0
29/01:30pm 22.3 22.4 15.4 65 4.1 S 9 11 5 6 1019.5 - 0.0
29/01:00pm 21.9 21.5 15.3 66 3.9 SSW 11 13 6 7 1019.9 1019.9 0.0
29/12:30pm 21.8 21.9 15.4 67 3.8 S 9 15 5 8 1020.2 - 0.0
29/12:00pm 21.6 20.5 15.4 68 3.7 S 15 19 8 10 1020.8 1020.8 0.0
29/11:30am 21.3 20.2 15.4 69 3.5 S 15 20 8 11 1021.1 - 0.0
29/11:00am 21.6 20.6 15.7 69 3.5 S 15 22 8 12 1021.4 1021.4 0.0
29/10:30am 21.5 20.9 15.6 69 3.5 S 13 17 7 9 1021.6 - 0.0
29/10:00am 21.8 21.2 15.6 68 3.7 S 13 17 7 9 1021.6 1021.6 0.0
29/09:30am 21.5 20.9 15.6 69 3.5 S 13 17 7 9 1021.6 - 0.0
29/09:00am 22.3 22.4 15.4 65 4.1 S 9 15 5 8 1021.4 1021.4 0.0
29/08:30am 22.5 21.4 13.0 55 5.4 S 11 17 6 9 1021.2 - 0.0
29/08:00am 22.4 21.1 12.6 54 5.6 SSE 11 17 6 9 1020.9 1020.9 0.0
29/07:30am 22.0 20.7 13.6 59 4.9 SSE 13 20 7 11 1020.7 - 0.0
29/07:00am 21.5 20.6 13.7 61 4.5 SSE 11 17 6 9 1020.3 1020.3 0.0
29/06:30am 21.3 21.0 14.5 65 4.0 SSE 9 13 5 7 1020.1 - 0.0
29/06:00am 21.4 21.1 14.3 64 4.1 SSE 9 15 5 8 1019.9 1019.9 0.0
29/05:30am 21.4 21.2 14.8 66 3.9 SSE 9 13 5 7 1020.0 - 0.0
29/05:00am 21.5 21.5 15.3 68 3.7 SSE 9 13 5 7 1019.7 1019.7 0.0
29/04:30am 20.3 21.2 16.7 80 2.2 SW 7 11 4 6 1019.5 - 0.0
29/04:00am 19.3 19.6 17.1 87 1.3 WSW 11 13 6 7 1019.5 1019.5 0.0
29/03:30am 19.3 18.6 16.5 84 1.7 WSW 15 17 8 9 1019.6 - 0.0
29/03:00am 19.7 19.9 16.7 83 1.8 SW 11 13 6 7 1019.7 1019.7 0.0
29/02:30am 19.7 19.8 16.5 82 1.9 WSW 11 13 6 7 1019.6 - 0.0
29/02:00am 19.9 19.3 16.7 82 1.9 SW 15 17 8 9 1019.8 1019.8 0.0
29/01:30am 19.6 19.1 17.0 85 1.6 SW 15 17 8 9 1019.9 - 0.0
29/01:00am 19.3 19.1 17.6 90 1.0 WSW 15 17 8 9 1020.1 1020.1 0.0
29/12:30am 19.5 19.4 17.8 90 1.0 WSW 15 17 8 9 1020.3 - 0.0
29/12:00am 19.7 18.7 16.5 82 1.9 WSW 17 17 9 9 1020.3 1020.3 0.0
 
Date/Time
EST
Temp
°C
App
Temp
°C
Dew
Point
Rel
Hum
%
Delta-T
°C
Wind Press
QNH
hPa
Press
MSL
hPa
Rain
since 9 am
mm
Dir
 
Spd
km/h
Gust
km/h
Spd
kts
Gust
kts
28/11:30pm 22.0 21.7 14.4 62 4.5 S 9 11 5 6 1020.4 - 0.0
28/11:00pm 21.8 22.3 15.6 68 3.7 S 7 9 4 5 1020.4 1020.4 0.0
28/10:30pm 21.8 21.8 16.3 71 3.3 S 11 13 6 7 1020.4 - 0.0
28/10:00pm 21.9 22.3 16.2 70 3.4 S 9 11 5 6 1020.4 1020.4 0.0
28/09:30pm 22.4 22.7 15.0 63 4.4 SE 7 13 4 7 1020.4 - 0.0
28/09:00pm 22.5 21.0 15.4 64 4.2 ESE 17 22 9 12 1020.4 1020.4 0.0
28/08:30pm 22.6 21.9 16.4 68 3.8 ESE 15 22 8 12 1020.4 - 0.0
28/08:00pm 22.5 20.8 16.3 68 3.8 ESE 20 26 11 14 1020.3 1020.3 0.0
28/07:30pm 22.4 21.1 15.7 66 4.0 ESE 17 24 9 13 1019.9 - 0.0
28/07:00pm 22.5 22.3 15.8 66 4.0 ESE 11 17 6 9 1019.7 1019.7 0.0
28/06:30pm 22.6 20.7 15.2 63 4.4 E 19 24 10 13 1019.4 - 0.0
28/06:00pm 22.6 21.1 15.2 63 4.4 ESE 17 24 9 13 1019.2 1019.2 0.0
28/05:30pm 22.5 21.3 15.1 63 4.4 ESE 15 24 8 13 1018.9 - 0.0
28/05:00pm 22.6 21.1 15.2 63 4.4 ESE 17 24 9 13 1018.7 1018.7 0.0
28/04:30pm 22.6 21.2 16.6 69 3.7 SE 19 24 10 13 1018.6 - 0.0
28/04:00pm 22.2 21.0 16.2 69 3.6 SE 17 24 9 13 1018.5 1018.5 0.0
28/03:30pm 22.4 21.4 16.7 70 3.5 SE 17 24 9 13 1018.6 - 0.0
28/03:00pm 22.1 20.8 15.9 68 3.7 SE 17 22 9 12 1018.8 1018.8 0.0
28/02:30pm 22.4 21.3 16.4 69 3.6 SE 17 22 9 12 1019.1 - 0.0
28/02:00pm 22.4 21.4 16.7 70 3.5 SE 17 24 9 13 1019.4 1019.4 0.0
28/01:30pm 22.0 20.7 16.7 72 3.2 S 19 22 10 12 1019.8 - 0.0
28/01:00pm 21.8 20.2 16.5 72 3.2 S 20 26 11 14 1020.1 1020.1 0.0
28/12:30pm 21.5 20.0 16.7 74 2.9 S 20 24 11 13 1020.4 - 0.0
28/12:00pm 21.4 20.1 16.8 75 2.8 S 19 20 10 11 1020.7 1020.7 0.0
28/11:30am 21.2 19.7 16.8 76 2.7 S 20 24 11 13 1021.0 - 0.0
28/11:00am 21.2 19.2 16.4 74 2.9 S 22 26 12 14 1021.4 1021.4 0.0
28/10:30am 21.3 19.2 16.3 73 3.0 S 22 26 12 14 1021.7 - 0.0
28/10:00am 21.4 19.5 16.8 75 2.8 S 22 26 12 14 1021.9 1021.9 0.0
28/09:30am 21.4 19.2 16.8 75 2.8 S 24 26 13 14 1021.9 - 0.0
28/09:00am 21.3 18.7 16.9 76 2.7 S 26 30 14 16 1021.8 1021.8 0.0
28/08:30am 21.1 18.5 16.9 77 2.6 S 26 32 14 17 1021.4 - 0.0
28/08:00am 21.3 18.8 17.1 77 2.6 S 26 30 14 16 1021.0 1021.0 0.0
28/07:30am 21.0 18.5 17.2 79 2.3 S 26 30 14 16 1020.6 - 0.0
28/07:00am 21.1 18.8 17.5 80 2.2 S 26 30 14 16 1020.3 1020.3 0.0
28/06:30am 20.9 18.1 17.3 80 2.2 S 28 32 15 17 1020.1 - 0.0
28/06:00am 21.0 19.3 18.0 83 1.9 S 24 28 13 15 1019.8 1019.8 0.0
28/05:30am 21.5 20.1 16.9 75 2.8 S 20 24 11 13 1019.6 - 0.0
28/05:00am 21.6 20.7 16.8 74 2.9 S 17 22 9 12 1019.6 1019.6 0.0
28/04:30am 21.5 20.5 16.7 74 2.9 S 17 20 9 11 1019.4 - 0.0
28/04:00am 21.6 20.7 16.8 74 2.9 S 17 20 9 11 1019.5 1019.5 0.0
28/03:30am 21.6 20.8 17.0 75 2.8 S 17 20 9 11 1019.4 - 0.0
28/03:00am 21.6 21.6 17.2 76 2.7 S 13 15 7 8 1019.6 1019.6 0.0
28/02:30am 21.7 22.2 17.5 77 2.6 S 11 15 6 8 1019.7 - 0.0
28/02:00am 21.9 22.6 17.1 74 2.9 S 9 13 5 7 1020.0 1020.0 0.0
28/01:30am 22.0 22.0 17.2 74 2.9 SSE 13 24 7 13 1020.2 - 0.0
28/01:00am 22.2 21.9 17.3 74 3.0 SE 15 24 8 13 1020.4 1020.4 0.0
28/12:30am 22.2 22.2 17.1 73 3.1 SE 13 22 7 12 1020.8 - 0.0
28/12:00am 22.0 22.2 17.6 76 2.7 SE 13 20 7 11 1021.2 1021.2 0.0
 
Date/Time
EST
Temp
°C
App
Temp
°C
Dew
Point
Rel
Hum
%
Delta-T
°C
Wind Press
QNH
hPa
Press
MSL
hPa
Rain
since 9 am
mm
Dir
 
Spd
km/h
Gust
km/h
Spd
kts
Gust
kts
27/11:30pm 21.3 22.7 19.6 90 1.1 SSW 11 13 6 7 1021.5 - 0.0
27/11:00pm 21.3 22.7 19.6 90 1.1 SW 11 13 6 7 1021.4 1021.4 0.0
27/10:30pm 21.5 22.8 19.4 88 1.3 SW 11 11 6 6 1021.5 - 0.0
27/10:00pm 21.6 22.3 18.0 80 2.2 SSW 11 15 6 8 1021.6 1021.6 0.0
27/09:30pm 22.3 22.3 18.1 77 2.6 S 15 17 8 9 1021.6 - 0.0
27/09:00pm 22.3 23.3 17.7 75 2.8 SSE 9 15 5 8 1021.4 1021.4 0.0
27/08:30pm 22.3 22.5 17.7 75 2.9 SE 13 20 7 11 1021.4 - 0.0
27/08:00pm 22.1 23.2 17.9 77 2.6 SE 9 17 5 9 1021.1 1021.1 0.0
27/07:30pm 22.0 23.0 17.8 77 2.6 ESE 9 17 5 9 1020.7 - 0.0
27/07:00pm 22.0 22.6 17.6 76 2.7 SE 11 20 6 11 1020.3 1020.3 0.0
27/06:30pm 22.0 22.6 17.6 76 2.7 SE 11 17 6 9 1019.9 - 0.0
27/06:00pm 21.9 21.5 17.1 74 2.9 ESE 15 24 8 13 1019.6 1019.6 0.0
27/05:30pm 22.2 21.4 17.1 73 3.1 SE 17 24 9 13 1019.3 - 0.0
27/05:00pm 22.4 21.6 17.1 72 3.2 SE 17 22 9 12 1019.1 1019.1 0.0
27/04:30pm 22.9 21.8 16.4 67 4.0 SE 17 24 9 13 1019.1 - 0.0
27/04:00pm 22.8 22.7 17.0 70 3.6 S 13 20 7 11 1019.1 1019.1 0.0
27/03:30pm 22.4 20.9 16.7 70 3.5 S 20 28 11 15 1019.2 - 0.0
27/03:00pm 22.3 20.4 16.6 70 3.5 S 22 26 12 14 1019.3 1019.3 0.0
27/02:30pm 22.2 19.5 16.5 70 3.5 S 26 30 14 16 1019.3 - 0.0
27/02:00pm 22.0 19.3 16.5 71 3.3 S 26 32 14 17 1019.6 1019.6 0.0
27/01:30pm 22.0 19.7 16.7 72 3.2 S 24 33 13 18 1019.9 - 0.0
27/01:00pm 22.2 19.5 16.7 71 3.3 S 26 32 14 17 1020.3 1020.3 0.0
27/12:30pm 21.8 19.4 16.3 71 3.3 S 24 33 13 18 1020.9 - 0.0
27/12:00pm 21.7 19.0 16.6 73 3.1 S 26 35 14 19 1021.1 1021.1 0.0
27/11:30am 21.6 18.6 16.8 74 2.9 S 28 35 15 19 1021.5 - 0.0
27/11:00am 21.6 18.0 17.2 76 2.7 S 32 35 17 19 1021.7 1021.7 0.0
27/10:30am 21.4 18.5 17.0 76 2.7 S 28 33 15 18 1021.8 - 0.0
27/10:00am 21.2 17.8 16.8 76 2.7 S 30 33 16 18 1022.2 1022.2 0.0
27/09:30am 21.3 17.9 16.7 75 2.8 S 30 35 16 19 1022.1 - 0.0
27/09:00am 21.3 18.3 16.7 75 2.8 S 28 32 15 17 1022.1 1022.1 0.2
27/08:30am 21.2 17.7 17.4 79 2.3 S 32 39 17 21 1021.7 - 0.2
27/08:00am 20.6 19.4 18.4 87 1.4 S 22 32 12 17 1021.4 1021.4 0.2
27/07:30am 21.5 20.7 17.1 76 2.7 S 17 22 9 12 1021.0 - 0.0
27/07:00am 21.6 21.5 17.0 75 2.8 S 13 20 7 11 1020.8 1020.8 0.0
27/06:30am 21.4 20.4 16.6 74 2.9 S 17 22 9 12 1020.4 - 0.0
27/06:00am 21.4 19.8 16.6 74 2.9 S 20 28 11 15 1020.2 1020.2 0.0
27/05:30am 21.3 18.5 16.3 73 3.0 S 26 33 14 18 1020.1 - 0.0
27/05:00am 21.2 18.9 16.6 75 2.8 S 24 32 13 17 1019.9 1019.9 0.0
27/04:30am 21.5 20.5 16.7 74 2.9 S 17 22 9 12 1019.8 - 0.0
27/04:00am 21.4 20.4 16.6 74 2.9 S 17 26 9 14 1019.9 1019.9 0.0
27/03:30am 21.2 18.4 17.2 78 2.4 S 28 37 15 20 1020.0 - 0.0
27/03:00am 21.4 19.2 17.8 80 2.2 S 26 30 14 16 1020.2 1020.2 0.0
27/02:30am 21.4 19.7 18.2 82 2.0 S 24 28 13 15 1020.4 - 0.0
27/02:00am 21.4 19.5 17.6 79 2.3 S 24 30 13 16 1020.7 1020.7 0.0
27/01:30am 21.4 20.4 18.8 85 1.6 S 22 26 12 14 1021.1 - 0.0
27/01:00am 21.4 20.1 19.0 86 1.5 S 24 28 13 15 1021.6 1021.6 0.0
27/12:30am 21.7 21.5 17.5 77 2.6 S 15 17 8 9 1021.8 - 0.0
27/12:00am 21.9 22.7 17.3 75 2.8 S 9 15 5 8 1022.0 1022.0 0.0
 
Date/Time
EST
Temp
°C
App
Temp
°C
Dew
Point
Rel
Hum
%
Delta-T
°C
Wind Press
QNH
hPa
Press
MSL
hPa
Rain
since 9 am
mm
Dir
 
Spd
km/h
Gust
km/h
Spd
kts
Gust
kts
26/11:30pm 21.8 22.6 17.4 76 2.7 S 9 13 5 7 1022.1 - 0.0
26/11:00pm 21.9 21.2 17.3 75 2.8 S 17 20 9 11 1022.5 1022.5 0.0
26/10:30pm 22.1 22.3 17.7 76 2.7 S 13 19 7 10 1022.6 - 0.0
26/10:00pm 21.9 22.5 17.7 77 2.6 S 11 15 6 8 1022.5 1022.5 0.0
26/09:30pm 21.8 21.3 17.8 78 2.5 S 17 20 9 11 1022.6 - 0.0
26/09:00pm 22.2 22.6 18.2 78 2.5 S 13 20 7 11 1022.6 1022.6 0.0
26/08:30pm 22.1 22.4 17.9 77 2.6 SE 13 22 7 12 1022.3 - 0.0
26/08:00pm 22.1 21.3 17.9 77 2.6 SE 19 24 10 13 1022.1 1022.1 0.0
26/07:30pm 22.0 21.4 17.6 76 2.7 SE 17 24 9 13 1022.0 - 0.0
26/07:00pm 22.1 21.9 17.7 76 2.7 SE 15 24 8 13 1021.5 1021.5 0.0
26/06:30pm 21.9 21.4 17.7 77 2.6 SE 17 28 9 15 1021.2 - 0.0
26/06:00pm 21.9 21.7 17.7 77 2.6 ESE 15 28 8 15 1020.9 1020.9 0.0
26/05:30pm 22.0 21.9 17.8 77 2.6 ESE 15 22 8 12 1020.7 - 0.0
26/05:00pm 22.2 22.0 17.6 75 2.8 SE 15 20 8 11 1020.5 1020.5 0.0

Other Formats:

Comma delimited format used in spreadsheet applications
http://www.bom.gov.au/fwo/IDQ60801/IDQ60801.94295.axf

JavaScript Object Notation format (JSON) in row-major order
http://www.bom.gov.au/fwo/IDQ60801/IDQ60801.94295.json